| time (UTC) | temp F | wind direction | speed knots | gust knots | rain 1hr in | rain 24hr in | rain mn in | humidity % | barometer mb |
| 20260502205605 | 62 | 108 | 8.7 | 12.2 | 0.00 | 0.00 | 0.00 | 41 | 1010.0 |
| 20260502205105 | 63 | 107 | 1.7 | 9.6 | 0.00 | 0.00 | 0.00 | 39 | 1009.6 |
| 20260502204601 | 63 | 111 | 2.6 | 12.2 | 0.00 | 0.00 | 0.00 | 39 | 1009.6 |
| 20260502204100 | 63 | 159 | 2.6 | 12.2 | 0.00 | 0.00 | 0.00 | 38 | 1009.7 |
| 20260502203602 | 64 | 117 | 12.2 | 12.2 | 0.00 | 0.00 | 0.00 | 37 | 1009.9 |
| 20260502202600 | 64 | 119 | 1.7 | 7.8 | 0.00 | 0.00 | 0.00 | 36 | 1009.8 |
| 20260502202103 | 64 | 151 | 3.5 | 5.2 | 0.00 | 0.00 | 0.00 | 37 | 1010.2 |
| 20260502201601 | 64 | 90 | 4.3 | 6.1 | 0.00 | 0.00 | 0.00 | 36 | 1009.9 |
| 20260502201102 | 64 | 150 | 2.6 | 7.0 | 0.00 | 0.00 | 0.00 | 37 | 1010.2 |
| 20260502200604 | 64 | 126 | 2.6 | 7.0 | 0.00 | 0.00 | 0.00 | 36 | 1010.1 |
| 20260502195602 | 65 | 154 | 1.7 | 4.3 | 0.00 | 0.00 | 0.00 | 36 | 1010.2 |
| 20260502195104 | 64 | 25 | 2.6 | 4.3 | 0.00 | 0.00 | 0.00 | 37 | 1010.2 |
| 20260502194603 | 64 | 67 | 1.7 | 5.2 | 0.00 | 0.00 | 0.00 | 37 | 1010.2 |
| 20260502194102 | 64 | 63 | 0.9 | 5.2 | 0.00 | 0.00 | 0.00 | 36 | 1010.3 |
| 20260502193603 | 64 | 112 | 1.7 | 7.0 | 0.00 | 0.00 | 0.00 | 36 | 1010.2 |
| 20260502193103 | 64 | 106 | 0.0 | 7.0 | 0.00 | 0.00 | 0.00 | 37 | 1010.4 |
| 20260502192101 | 64 | 131 | 5.2 | 5.2 | 0.00 | 0.00 | 0.00 | 36 | 1010.5 |
| 20260502191601 | 64 | 132 | 1.7 | 10.4 | 0.00 | 0.00 | 0.00 | 36 | 1010.6 |
| 20260502191103 | 64 | 87 | 2.6 | 10.4 | 0.00 | 0.00 | 0.00 | 37 | 1010.6 |
| 20260502190604 | 63 | 113 | 2.6 | 7.8 | 0.00 | 0.00 | 0.00 | 36 | 1010.7 |
| 20260502185104 | 63 | 143 | 5.2 | 7.8 | 0.00 | 0.00 | 0.00 | 37 | 1010.9 |
| 20260502183603 | 64 | 140 | 2.6 | 7.8 | 0.00 | 0.00 | 0.00 | 38 | 1010.9 |
| 20260502183105 | 63 | 6 | 0.0 | 7.0 | 0.00 | 0.00 | 0.00 | 37 | 1011.0 |
| 20260502182604 | 64 | 90 | 1.7 | 4.3 | 0.00 | 0.00 | 0.00 | 36 | 1010.8 |
| 20260502182105 | 64 | 90 | 3.5 | 5.2 | 0.00 | 0.00 | 0.00 | 36 | 1011.2 |
| 20260502181603 | 64 | 86 | 2.6 | 5.2 | 0.00 | 0.00 | 0.00 | 36 | 1011.4 |
| 20260502181103 | 64 | 103 | 0.9 | 7.8 | 0.00 | 0.00 | 0.00 | 36 | 1011.3 |
| 20260502180104 | 64 | 106 | 0.9 | 7.0 | 0.00 | 0.00 | 0.00 | 35 | 1011.4 |
| 20260502170105 | 63 | 82 | 1.7 | 7.8 | 0.00 | 0.00 | 0.00 | 36 | 1012.1 |
| 20260502164103 | 61 | 355 | 0.9 | 7.0 | 0.00 | 0.00 | 0.00 | 39 | 1012.5 |
| 20260502163603 | 60 | 60 | 2.6 | 5.2 | 0.00 | 0.00 | 0.00 | 38 | 1012.5 |
| 20260502163102 | 59 | 353 | 0.0 | 6.1 | 0.00 | 0.00 | 0.00 | 39 | 1012.4 |
| 20260502162603 | 59 | 21 | 0.0 | 6.1 | 0.00 | 0.00 | 0.00 | 39 | 1012.6 |
| 20260502162102 | 58 | 77 | 1.7 | 8.7 | 0.00 | 0.00 | 0.00 | 40 | 1012.7 |
| 20260502161600 | 58 | 79 | 1.7 | 8.7 | 0.00 | 0.00 | 0.00 | 39 | 1012.7 |
| 20260502161101 | 59 | 90 | 4.3 | 7.0 | 0.00 | 0.00 | 0.00 | 38 | 1012.6 |
| 20260502151531 | 55 | 180 | 0.9 | 9.6 | 0.00 | 0.00 | 0.00 | 42 | 1013.3 |
| 20260502150531 | 55 | 140 | 2.6 | 6.1 | 0.00 | 0.00 | 0.00 | 44 | 1013.4 |
| 20260502130530 | 42 | 34 | 1.7 | 3.5 | 0.00 | 0.00 | 0.00 | 62 | 1015.1 |
| 20260502123530 | 38 | 43 | 3.5 | 3.5 | 0.00 | 0.00 | 0.00 | 68 | 1015.6 |
| 20260502123031 | 37 | 15 | 0.0 | 2.6 | 0.00 | 0.00 | 0.00 | 70 | 1015.6 |
| 20260502122529 | 36 | 21 | 2.6 | 2.6 | 0.00 | 0.00 | 0.00 | 71 | 1015.7 |
| 20260502122016 | 34 | 23 | 0.0 | 2.6 | 0.00 | 0.00 | 0.00 | 74 | 1015.7 |
| 20260502121517 | 33 | 25 | 1.7 | 1.7 | 0.00 | 0.00 | 0.00 | 77 | 1015.7 |
| 20260502121017 | 32 | 0 | 0.0 | 1.7 | 0.00 | 0.00 | 0.00 | 80 | 1015.9 |
| 20260502120513 | 31 | 0 | 0.0 | 1.7 | 0.00 | 0.00 | 0.00 | 82 | 1015.8 |
| 20260502115511 | 30 | 20 | 0.0 | 1.7 | 0.00 | 0.00 | 0.00 | 83 | 1015.9 |
| 20260502115012 | 30 | 0 | 0.9 | 1.7 | 0.00 | 0.00 | 0.00 | 84 | 1016.1 |
| 20260502114510 | 29 | 34 | 1.7 | 1.7 | 0.00 | 0.00 | 0.00 | 85 | 1016.4 |
| 20260502114010 | 29 | 270 | 0.0 | 1.7 | 0.00 | 0.00 | 0.00 | 86 | 1016.2 |
| 20260502113009 | 28 | 7 | 0.9 | 1.7 | 0.00 | 0.00 | 0.00 | 87 | 1016.4 |
| 20260502112001 | 27 | 54 | 0.0 | 1.7 | 0.00 | 0.00 | 0.00 | 90 | 1016.7 |
| 20260502111500 | 27 | 57 | 0.9 | 1.7 | 0.00 | 0.00 | 0.00 | 90 | 1016.6 |
| 20260502111001 | 27 | 32 | 0.0 | 1.7 | 0.00 | 0.00 | 0.00 | 90 | 1016.6 |
| 20260502110000 | 27 | 0 | 0.0 | 1.7 | 0.00 | 0.00 | 0.00 | 90 | 1016.5 |
| 20260502105503 | 27 | 60 | 0.9 | 1.7 | 0.00 | 0.00 | 0.00 | 90 | 1016.7 |
| 20260502104444 | 27 | 20 | 0.0 | 1.7 | 0.00 | 0.00 | 0.00 | 89 | 1016.8 |
| 20260502103943 | 27 | 29 | 0.0 | 1.7 | 0.00 | 0.00 | 0.00 | 89 | 1016.9 |
| 20260502103444 | 27 | 12 | 0.9 | 1.7 | 0.00 | 0.00 | 0.00 | 90 | 1016.7 |
| 20260502102938 | 27 | 30 | 0.0 | 1.7 | 0.00 | 0.00 | 0.00 | 89 | 1016.7 |
| 20260502102430 | 27 | 33 | 0.0 | 1.7 | 0.00 | 0.00 | 0.00 | 89 | 1016.9 |
| 20260502101929 | 27 | 66 | 0.9 | 1.7 | 0.00 | 0.00 | 0.00 | 89 | 1017.0 |
| 20260502101431 | 27 | 23 | 0.9 | 1.7 | 0.00 | 0.00 | 0.00 | 88 | 1017.0 |
| 20260502100929 | 27 | 49 | 0.9 | 1.7 | 0.00 | 0.00 | 0.00 | 88 | 1017.2 |
| 20260502091429 | 27 | 35 | 0.0 | 1.7 | 0.00 | 0.00 | 0.00 | 86 | 1017.6 |
| 20260502090929 | 27 | 60 | 0.9 | 1.7 | 0.00 | 0.00 | 0.00 | 86 | 1017.6 |
| 20260502090429 | 27 | 23 | 0.9 | 1.7 | 0.00 | 0.00 | 0.00 | 86 | 1017.6 |
| 20260502071406 | 28 | 75 | 0.0 | 0.9 | 0.00 | 0.00 | 0.00 | 80 | 1018.1 |
| 20260502070904 | 28 | 66 | 0.9 | 1.7 | 0.00 | 0.00 | 0.00 | 79 | 1018.2 |
| 20260502070403 | 28 | 66 | 0.0 | 1.7 | 0.00 | 0.00 | 0.00 | 80 | 1018.2 |
| 20260502064902 | 28 | 26 | 0.0 | 1.7 | 0.00 | 0.00 | 0.00 | 77 | 1018.2 |
| 20260502064405 | 28 | 20 | 0.0 | 1.7 | 0.00 | 0.00 | 0.00 | 77 | 1018.2 |
| 20260502063907 | 28 | 23 | 0.0 | 1.7 | 0.00 | 0.00 | 0.00 | 77 | 1018.4 |
| 20260502063406 | 28 | 12 | 0.9 | 1.7 | 0.00 | 0.00 | 0.00 | 77 | 1018.3 |
| 20260502062902 | 28 | 32 | 1.7 | 1.7 | 0.00 | 0.00 | 0.00 | 78 | 1018.2 |
| 20260502062402 | 29 | 60 | 0.0 | 1.7 | 0.00 | 0.00 | 0.00 | 76 | 1018.4 |
| 20260502061900 | 28 | 77 | 0.9 | 1.7 | 0.00 | 0.00 | 0.00 | 76 | 1018.4 |
| 20260502061402 | 29 | 32 | 0.0 | 1.7 | 0.00 | 0.00 | 0.00 | 75 | 1018.3 |
| 20260502060901 | 29 | 14 | 0.9 | 1.7 | 0.00 | 0.00 | 0.00 | 74 | 1018.4 |
| 20260502060404 | 29 | 14 | 0.0 | 1.7 | 0.00 | 0.00 | 0.00 | 75 | 1018.2 |
| 20260502055901 | 29 | 18 | 0.9 | 1.7 | 0.00 | 0.00 | 0.00 | 76 | 1018.3 |
| 20260502055402 | 29 | 49 | 0.9 | 1.7 | 0.00 | 0.00 | 0.00 | 75 | 1018.6 |
| 20260502054902 | 30 | 90 | 0.0 | 1.7 | 0.00 | 0.00 | 0.00 | 74 | 1018.7 |
| 20260502054406 | 29 | 74 | 1.7 | 1.7 | 0.00 | 0.00 | 0.00 | 73 | 1018.7 |
| 20260502053902 | 29 | 270 | 0.0 | 0.0 | 0.00 | 0.00 | 0.00 | 75 | 1018.6 |
| 20260502053405 | 29 | 270 | 0.0 | 0.0 | 0.00 | 0.00 | 0.00 | 75 | 1018.6 |
| 20260502052902 | 29 | 270 | 0.0 | 0.0 | 0.00 | 0.00 | 0.00 | 74 | 1018.6 |
| 20260502052404 | 30 | 270 | 0.0 | 0.0 | 0.00 | 0.00 | 0.00 | 74 | 1018.7 |
| 20260502051405 | 31 | 270 | 0.0 | 0.9 | 0.00 | 0.00 | 0.00 | 72 | 1018.6 |
| 20260502050401 | 31 | 66 | 0.0 | 0.9 | 0.00 | 0.00 | 0.00 | 74 | 1018.9 |
| 20260502045901 | 31 | 66 | 0.0 | 1.7 | 0.00 | 0.00 | 0.00 | 75 | 1018.7 |
| 20260502045401 | 31 | 71 | 0.9 | 1.7 | 0.00 | 0.00 | 0.00 | 74 | 1018.6 |
| 20260502044902 | 31 | 77 | 0.9 | 1.7 | 0.00 | 0.00 | 0.00 | 73 | 1018.7 |
| 20260502044401 | 31 | 23 | 0.0 | 0.9 | 0.00 | 0.00 | 0.00 | 69 | 1018.9 |
| 20260502043904 | 31 | 23 | 0.0 | 0.9 | 0.00 | 0.00 | 0.00 | 70 | 1018.9 |
| 20260502043402 | 31 | 82 | 0.0 | 0.0 | 0.00 | 0.00 | 0.00 | 71 | 1018.6 |
| 20260502042904 | 32 | 82 | 0.0 | 0.9 | 0.00 | 0.00 | 0.00 | 71 | 1019.0 |
| 20260502041902 | 32 | 98 | 0.9 | 0.9 | 0.00 | 0.00 | 0.00 | 72 | 1018.7 |
| 20260502041402 | 33 | 14 | 0.0 | 0.9 | 0.00 | 0.00 | 0.00 | 70 | 1018.7 |
| 20260502040903 | 33 | 12 | 0.9 | 0.9 | 0.00 | 0.00 | 0.00 | 70 | 1018.7 |
| 20260502040405 | 33 | 74 | 0.0 | 0.9 | 0.00 | 0.00 | 0.00 | 67 | 1018.8 |
| 20260502035904 | 34 | 90 | 0.0 | 0.0 | 0.00 | 0.00 | 0.00 | 69 | 1018.9 |
| 20260502035402 | 34 | 90 | 0.0 | 1.7 | 0.00 | 0.00 | 0.00 | 66 | 1018.8 |
| 20260502034902 | 34 | 90 | 0.0 | 1.7 | 0.00 | 0.00 | 0.00 | 68 | 1018.8 |
| 20260502034404 | 34 | 66 | 0.0 | 0.9 | 0.00 | 0.00 | 0.00 | 68 | 1019.1 |
| 20260502033905 | 34 | 74 | 0.0 | 0.9 | 0.00 | 0.00 | 0.00 | 66 | 1019.1 |
| 20260502033403 | 35 | 15 | 0.0 | 0.9 | 0.00 | 0.00 | 0.00 | 65 | 1019.0 |
| 20260502032405 | 35 | 74 | 0.0 | 0.9 | 0.00 | 0.00 | 0.00 | 65 | 1018.8 |
| 20260502031400 | 36 | 90 | 0.0 | 0.9 | 0.00 | 0.00 | 0.00 | 63 | 1018.9 |
| 20260502030902 | 36 | 0 | 0.0 | 1.7 | 0.00 | 0.00 | 0.00 | 63 | 1018.9 |
| 20260502030401 | 37 | 151 | 0.0 | 1.7 | 0.00 | 0.00 | 0.00 | 62 | 1019.1 |
| 20260502025900 | 37 | 246 | 0.9 | 1.7 | 0.00 | 0.00 | 0.00 | 60 | 1018.9 |
| 20260502025403 | 37 | 0 | 0.0 | 0.0 | 0.00 | 0.00 | 0.00 | 61 | 1019.0 |
| 20260502024901 | 37 | 0 | 0.0 | 0.9 | 0.00 | 0.00 | 0.00 | 62 | 1018.8 |
| 20260502024402 | 38 | 0 | 0.0 | 0.9 | 0.00 | 0.00 | 0.00 | 61 | 1019.2 |
| 20260502023404 | 38 | 0 | 0.0 | 0.0 | 0.00 | 0.00 | 0.00 | 60 | 1019.1 |
| 20260502022904 | 39 | 0 | 0.0 | 0.9 | 0.00 | 0.00 | 0.00 | 58 | 1019.1 |
| 20260502022402 | 39 | 0 | 0.0 | 0.9 | 0.00 | 0.00 | 0.00 | 56 | 1019.0 |
| 20260502021903 | 39 | 0 | 0.0 | 0.9 | 0.00 | 0.00 | 0.00 | 57 | 1019.0 |
| 20260502021404 | 40 | 7 | 0.0 | 0.9 | 0.00 | 0.00 | 0.00 | 56 | 1018.9 |
| 20260502020901 | 40 | 7 | 0.0 | 0.9 | 0.00 | 0.00 | 0.00 | 56 | 1019.0 |
| 20260502020402 | 40 | 5 | 0.9 | 0.9 | 0.00 | 0.00 | 0.00 | 56 | 1019.1 |
| 20260502015901 | 41 | 15 | 0.0 | 0.0 | 0.00 | 0.00 | 0.00 | 55 | 1018.8 |
| 20260502014902 | 42 | 77 | 0.0 | 1.7 | 0.00 | 0.00 | 0.00 | 53 | 1018.7 |
| 20260502014400 | 42 | 165 | 0.0 | 0.0 | 0.00 | 0.00 | 0.00 | 51 | 1018.6 |
| 20260502013905 | 43 | 165 | 0.0 | 0.0 | 0.00 | 0.00 | 0.00 | 50 | 1018.8 |
| 20260502013405 | 44 | 165 | 0.0 | 0.0 | 0.00 | 0.00 | 0.00 | 48 | 1018.6 |
| 20260502012906 | 44 | 165 | 0.0 | 0.0 | 0.00 | 0.00 | 0.00 | 46 | 1018.6 |
| 20260502012403 | 45 | 165 | 0.0 | 0.0 | 0.00 | 0.00 | 0.00 | 46 | 1018.6 |
| 20260502011904 | 46 | 165 | 0.0 | 0.0 | 0.00 | 0.00 | 0.00 | 44 | 1018.8 |
| 20260502011403 | 46 | 165 | 0.0 | 0.0 | 0.00 | 0.00 | 0.00 | 43 | 1018.8 |
| 20260502010903 | 47 | 165 | 0.0 | 0.0 | 0.00 | 0.00 | 0.00 | 43 | 1018.4 |
| 20260502005905 | 49 | 81 | 0.0 | 1.7 | 0.00 | 0.00 | 0.00 | 41 | 1018.7 |
| 20260502005405 | 50 | 188 | 0.0 | 1.7 | 0.00 | 0.00 | 0.00 | 40 | 1018.7 |
| 20260502004904 | 50 | 188 | 0.0 | 1.7 | 0.00 | 0.00 | 0.00 | 39 | 1018.6 |
| 20260502003904 | 51 | 157 | 0.0 | 2.6 | 0.00 | 0.00 | 0.00 | 37 | 1018.8 |
| 20260502003404 | 50 | 201 | 0.0 | 4.3 | 0.00 | 0.00 | 0.00 | 38 | 1018.8 |
| 20260502002403 | 51 | 154 | 0.0 | 2.6 | 0.00 | 0.00 | 0.00 | 37 | 1018.7 |
| 20260502001902 | 51 | 180 | 0.0 | 2.6 | 0.00 | 0.00 | 0.00 | 36 | 1018.7 |
| 20260502001404 | 52 | 237 | 2.6 | 2.6 | 0.00 | 0.00 | 0.00 | 35 | 1018.6 |
| 20260502000902 | 53 | 192 | 0.0 | 4.3 | 0.00 | 0.00 | 0.00 | 35 | 1018.4 |
| 20260502000403 | 53 | 154 | 0.9 | 4.3 | 0.00 | 0.00 | 0.00 | 36 | 1018.6 |
| 20260501235903 | 53 | 148 | 2.6 | 3.5 | 0.00 | 0.00 | 0.00 | 35 | 1018.4 |
| 20260501235403 | 52 | 286 | 0.9 | 3.5 | 0.00 | 0.00 | 0.00 | 36 | 1018.4 |
| 20260501234901 | 53 | 249 | 0.9 | 2.6 | 0.00 | 0.00 | 0.00 | 34 | 1018.6 |
| 20260501234402 | 55 | 176 | 1.7 | 2.6 | 0.00 | 0.00 | 0.00 | 33 | 1018.7 |
| 20260501233902 | 56 | 180 | 1.7 | 3.5 | 0.00 | 0.00 | 0.00 | 32 | 1018.8 |
| 20260501233402 | 54 | 106 | 0.9 | 3.5 | 0.00 | 0.00 | 0.00 | 33 | 1018.8 |
| 20260501232904 | 55 | 266 | 1.7 | 6.1 | 0.00 | 0.00 | 0.00 | 33 | 1018.7 |
| 20260501232404 | 54 | 60 | 3.5 | 6.1 | 0.00 | 0.00 | 0.00 | 34 | 1018.6 |
| 20260501231902 | 54 | 154 | 1.7 | 1.7 | 0.00 | 0.00 | 0.00 | 34 | 1018.3 |
| 20260501231402 | 54 | 186 | 0.0 | 1.7 | 0.00 | 0.00 | 0.00 | 33 | 1018.3 |
| 20260501230404 | 54 | 157 | 1.7 | 1.7 | 0.00 | 0.00 | 0.00 | 35 | 1018.8 |
| 20260501225903 | 51 | 180 | 0.0 | 1.7 | 0.00 | 0.00 | 0.00 | 35 | 1018.7 |
| 20260501225406 | 51 | 161 | 0.0 | 3.5 | 0.00 | 0.00 | 0.00 | 36 | 1018.8 |
| 20260501224904 | 51 | 254 | 0.0 | 3.5 | 0.00 | 0.00 | 0.00 | 36 | 1018.7 |
| 20260501224405 | 52 | 349 | 0.9 | 5.2 | 0.00 | 0.00 | 0.00 | 34 | 1018.8 |
| 20260501223905 | 54 | 128 | 2.6 | 5.2 | 0.00 | 0.00 | 0.00 | 33 | 1018.7 |
| 20260501223403 | 55 | 231 | 4.3 | 5.2 | 0.00 | 0.00 | 0.00 | 33 | 1018.7 |
| 20260501222903 | 54 | 195 | 2.6 | 5.2 | 0.00 | 0.00 | 0.00 | 34 | 1019.0 |
| 20260501222403 | 55 | 154 | 0.0 | 4.3 | 0.00 | 0.00 | 0.00 | 32 | 1018.7 |
| 20260501221903 | 53 | 165 | 0.0 | 4.3 | 0.00 | 0.00 | 0.00 | 33 | 1018.7 |
| 20260501221403 | 53 | 165 | 0.0 | 3.5 | 0.00 | 0.00 | 0.00 | 33 | 1018.9 |
| 20260501220903 | 53 | 270 | 0.9 | 6.1 | 0.00 | 0.00 | 0.00 | 33 | 1018.9 |
| 20260501220402 | 54 | 225 | 3.5 | 6.1 | 0.00 | 0.00 | 0.00 | 32 | 1018.7 |
| 20260501215404 | 53 | 190 | 4.3 | 7.8 | 0.00 | 0.00 | 0.00 | 33 | 1018.7 |
| 20260501214902 | 54 | 180 | 1.7 | 5.2 | 0.00 | 0.00 | 0.00 | 33 | 1019.0 |
| 20260501214400 | 55 | 186 | 1.7 | 6.1 | 0.00 | 0.00 | 0.00 | 32 | 1018.9 |
| 20260501213900 | 55 | 167 | 3.5 | 6.1 | 0.00 | 0.00 | 0.00 | 31 | 1019.1 |
| 20260501213402 | 54 | 201 | 2.6 | 5.2 | 0.00 | 0.00 | 0.00 | 32 | 1019.1 |
| 20260501212903 | 55 | 162 | 3.5 | 7.8 | 0.00 | 0.00 | 0.00 | 32 | 1019.2 |
| 20260501212403 | 54 | 337 | 1.7 | 7.8 | 0.00 | 0.00 | 0.00 | 35 | 1018.9 |
| 20260501211902 | 56 | 212 | 1.7 | 6.1 | 0.00 | 0.00 | 0.00 | 33 | 1019.2 |
| 20260501210901 | 55 | 221 | 1.7 | 5.2 | 0.00 | 0.00 | 0.00 | 31 | 1019.3 |
| 20260501205902 | 54 | 200 | 0.9 | 5.2 | 0.00 | 0.00 | 0.00 | 32 | 1019.3 |